sensor_id;sensor_type;location;lat;lon;timestamp;P1;durP1;ratioP1;P2;durP2;ratioP2
72797;SDS011;61084;55.816;37.036;2022-09-27T00:01:07;2.88;;;1.58;;
72797;SDS011;61084;55.816;37.036;2022-09-27T00:03:34;5.63;;;1.40;;
72797;SDS011;61084;55.816;37.036;2022-09-27T00:08:30;5.00;;;2.20;;
72797;SDS011;61084;55.816;37.036;2022-09-27T00:11:00;5.78;;;1.75;;
72797;SDS011;61084;55.816;37.036;2022-09-27T00:13:27;3.95;;;1.70;;
72797;SDS011;61084;55.816;37.036;2022-09-27T00:15:57;7.63;;;2.20;;
72797;SDS011;61084;55.816;37.036;2022-09-27T00:18:24;8.05;;;2.15;;
72797;SDS011;61084;55.816;37.036;2022-09-27T00:20:49;9.93;;;2.28;;
72797;SDS011;61084;55.816;37.036;2022-09-27T00:23:16;5.95;;;1.70;;
72797;SDS011;61084;55.816;37.036;2022-09-27T00:25:41;2.95;;;1.42;;
72797;SDS011;61084;55.816;37.036;2022-09-27T00:28:07;3.53;;;1.80;;
72797;SDS011;61084;55.816;37.036;2022-09-27T00:30:33;5.47;;;1.50;;
72797;SDS011;61084;55.816;37.036;2022-09-27T00:32:59;3.15;;;1.60;;
72797;SDS011;61084;55.816;37.036;2022-09-27T00:35:25;4.97;;;2.25;;
72797;SDS011;61084;55.816;37.036;2022-09-27T00:37:51;4.50;;;1.75;;
72797;SDS011;61084;55.816;37.036;2022-09-27T00:40:16;2.88;;;1.13;;
72797;SDS011;61084;55.816;37.036;2022-09-27T00:42:42;4.47;;;1.77;;
72797;SDS011;61084;55.816;37.036;2022-09-27T00:45:14;2.53;;;1.40;;
72797;SDS011;61084;55.816;37.036;2022-09-27T00:47:53;4.70;;;1.38;;
72797;SDS011;61084;55.816;37.036;2022-09-27T00:50:32;5.85;;;1.33;;
72797;SDS011;61084;55.816;37.036;2022-09-27T00:55:41;3.75;;;1.20;;
72797;SDS011;61084;55.816;37.036;2022-09-27T00:58:11;0.80;;;0.63;;
72797;SDS011;61084;55.816;37.036;2022-09-27T01:00:39;1.77;;;0.80;;
72797;SDS011;61084;55.816;37.036;2022-09-27T01:03:11;2.63;;;0.93;;
72797;SDS011;61084;55.816;37.036;2022-09-27T01:05:43;6.25;;;1.15;;
72797;SDS011;61084;55.816;37.036;2022-09-27T01:08:10;2.00;;;1.02;;
72797;SDS011;61084;55.816;37.036;2022-09-27T01:10:38;1.40;;;0.82;;
72797;SDS011;61084;55.816;37.036;2022-09-27T01:13:19;0.90;;;0.70;;
72797;SDS011;61084;55.816;37.036;2022-09-27T01:16:12;1.58;;;1.15;;
72797;SDS011;61084;55.816;37.036;2022-09-27T01:21:49;2.13;;;1.05;;
72797;SDS011;61084;55.816;37.036;2022-09-27T01:24:28;1.58;;;0.90;;
72797;SDS011;61084;55.816;37.036;2022-09-27T01:30:21;2.20;;;1.15;;
72797;SDS011;61084;55.816;37.036;2022-09-27T01:35:34;2.13;;;0.95;;
72797;SDS011;61084;55.816;37.036;2022-09-27T01:43:35;1.73;;;0.90;;
72797;SDS011;61084;55.816;37.036;2022-09-27T01:46:09;1.75;;;1.00;;
72797;SDS011;61084;55.816;37.036;2022-09-27T01:49:01;2.00;;;0.95;;
72797;SDS011;61084;55.816;37.036;2022-09-27T01:51:38;3.55;;;1.17;;
72797;SDS011;61084;55.816;37.036;2022-09-27T01:54:11;1.73;;;1.10;;
72797;SDS011;61084;55.816;37.036;2022-09-27T01:57:16;2.33;;;1.00;;
72797;SDS011;61084;55.816;37.036;2022-09-27T02:02:46;1.92;;;0.88;;
72797;SDS011;61084;55.816;37.036;2022-09-27T02:05:33;1.60;;;0.73;;
72797;SDS011;61084;55.816;37.036;2022-09-27T02:08:22;3.05;;;1.20;;
72797;SDS011;61084;55.816;37.036;2022-09-27T02:10:53;4.97;;;0.93;;
72797;SDS011;61084;55.816;37.036;2022-09-27T02:13:25;3.72;;;1.15;;
72797;SDS011;61084;55.816;37.036;2022-09-27T02:25:39;1.67;;;0.90;;
72797;SDS011;61084;55.816;37.036;2022-09-27T02:28:27;1.58;;;0.90;;
72797;SDS011;61084;55.816;37.036;2022-09-27T02:31:01;3.10;;;1.00;;
72797;SDS011;61084;55.816;37.036;2022-09-27T02:33:34;3.17;;;1.55;;
72797;SDS011;61084;55.816;37.036;2022-09-27T02:36:05;8.02;;;1.48;;
72797;SDS011;61084;55.816;37.036;2022-09-27T02:38:31;3.15;;;1.40;;
72797;SDS011;61084;55.816;37.036;2022-09-27T02:40:59;2.92;;;1.40;;
72797;SDS011;61084;55.816;37.036;2022-09-27T02:43:27;2.20;;;1.20;;
72797;SDS011;61084;55.816;37.036;2022-09-27T02:48:56;10.77;;;2.42;;
72797;SDS011;61084;55.816;37.036;2022-09-27T02:52:02;16.10;;;2.45;;
72797;SDS011;61084;55.816;37.036;2022-09-27T02:54:43;8.80;;;2.20;;
72797;SDS011;61084;55.816;37.036;2022-09-27T02:57:46;5.85;;;1.55;;
72797;SDS011;61084;55.816;37.036;2022-09-27T03:00:50;4.88;;;1.70;;
72797;SDS011;61084;55.816;37.036;2022-09-27T03:06:10;4.97;;;1.13;;
72797;SDS011;61084;55.816;37.036;2022-09-27T03:08:39;4.50;;;1.45;;
72797;SDS011;61084;55.816;37.036;2022-09-27T03:11:06;7.22;;;1.48;;
72797;SDS011;61084;55.816;37.036;2022-09-27T03:13:33;8.68;;;1.42;;
72797;SDS011;61084;55.816;37.036;2022-09-27T03:16:04;3.00;;;1.30;;
72797;SDS011;61084;55.816;37.036;2022-09-27T03:18:49;5.50;;;1.17;;
72797;SDS011;61084;55.816;37.036;2022-09-27T03:21:34;7.10;;;1.70;;
72797;SDS011;61084;55.816;37.036;2022-09-27T03:24:00;5.80;;;1.90;;
72797;SDS011;61084;55.816;37.036;2022-09-27T03:28:53;3.35;;;1.30;;
72797;SDS011;61084;55.816;37.036;2022-09-27T03:31:19;3.28;;;1.02;;
72797;SDS011;61084;55.816;37.036;2022-09-27T03:34:05;7.68;;;1.20;;
72797;SDS011;61084;55.816;37.036;2022-09-27T03:36:31;2.60;;;1.10;;
72797;SDS011;61084;55.816;37.036;2022-09-27T03:38:57;2.00;;;0.80;;
72797;SDS011;61084;55.816;37.036;2022-09-27T03:41:23;3.88;;;1.08;;
72797;SDS011;61084;55.816;37.036;2022-09-27T03:43:49;1.25;;;0.82;;
72797;SDS011;61084;55.816;37.036;2022-09-27T03:46:16;4.95;;;0.85;;
72797;SDS011;61084;55.816;37.036;2022-09-27T03:48:42;4.40;;;1.00;;
72797;SDS011;61084;55.816;37.036;2022-09-27T03:51:08;0.95;;;0.70;;
72797;SDS011;61084;55.816;37.036;2022-09-27T03:53:36;1.75;;;0.90;;
72797;SDS011;61084;55.816;37.036;2022-09-27T03:56:03;1.13;;;0.90;;
72797;SDS011;61084;55.816;37.036;2022-09-27T03:58:29;1.85;;;0.90;;
72797;SDS011;61084;55.816;37.036;2022-09-27T04:00:55;3.67;;;1.10;;
72797;SDS011;61084;55.816;37.036;2022-09-27T04:03:21;2.30;;;0.70;;
72797;SDS011;61084;55.816;37.036;2022-09-27T04:06:06;4.35;;;0.85;;
72797;SDS011;61084;55.816;37.036;2022-09-27T04:08:38;2.10;;;0.70;;
72797;SDS011;61084;55.816;37.036;2022-09-27T04:11:05;1.92;;;0.80;;
72797;SDS011;61084;55.816;37.036;2022-09-27T04:13:31;1.50;;;0.77;;
72797;SDS011;61084;55.816;37.036;2022-09-27T04:15:58;1.00;;;0.47;;
72797;SDS011;61084;55.816;37.036;2022-09-27T04:18:42;1.30;;;0.80;;
72797;SDS011;61084;55.816;37.036;2022-09-27T04:21:46;3.80;;;1.10;;
72797;SDS011;61084;55.816;37.036;2022-09-27T04:24:13;2.40;;;0.70;;
72797;SDS011;61084;55.816;37.036;2022-09-27T04:26:48;2.53;;;0.70;;
72797;SDS011;61084;55.816;37.036;2022-09-27T04:29:20;4.50;;;0.88;;
72797;SDS011;61084;55.816;37.036;2022-09-27T04:31:50;2.13;;;0.85;;
72797;SDS011;61084;55.816;37.036;2022-09-27T04:34:50;14.02;;;2.33;;
72797;SDS011;61084;55.816;37.036;2022-09-27T04:37:34;2.63;;;1.40;;
72797;SDS011;61084;55.816;37.036;2022-09-27T04:40:02;14.10;;;1.30;;
72797;SDS011;61084;55.816;37.036;2022-09-27T04:42:29;3.67;;;1.02;;
72797;SDS011;61084;55.816;37.036;2022-09-27T04:44:55;3.97;;;1.63;;
72797;SDS011;61084;55.816;37.036;2022-09-27T04:47:21;4.95;;;1.13;;
72797;SDS011;61084;55.816;37.036;2022-09-27T04:49:47;17.33;;;2.40;;
72797;SDS011;61084;55.816;37.036;2022-09-27T04:52:14;17.60;;;3.38;;
72797;SDS011;61084;55.816;37.036;2022-09-27T04:54:40;3.90;;;1.20;;
72797;SDS011;61084;55.816;37.036;2022-09-27T04:57:10;3.80;;;1.30;;
72797;SDS011;61084;55.816;37.036;2022-09-27T04:59:37;4.72;;;1.30;;
72797;SDS011;61084;55.816;37.036;2022-09-27T05:04:41;3.03;;;1.30;;
72797;SDS011;61084;55.816;37.036;2022-09-27T05:07:08;3.42;;;1.10;;
72797;SDS011;61084;55.816;37.036;2022-09-27T05:09:40;2.83;;;1.38;;
72797;SDS011;61084;55.816;37.036;2022-09-27T05:12:07;7.30;;;1.33;;
72797;SDS011;61084;55.816;37.036;2022-09-27T05:14:55;3.17;;;1.20;;
72797;SDS011;61084;55.816;37.036;2022-09-27T05:17:40;2.05;;;1.00;;
72797;SDS011;61084;55.816;37.036;2022-09-27T05:20:24;4.82;;;1.20;;
72797;SDS011;61084;55.816;37.036;2022-09-27T05:22:53;2.42;;;1.33;;
72797;SDS011;61084;55.816;37.036;2022-09-27T05:25:20;1.70;;;0.90;;
72797;SDS011;61084;55.816;37.036;2022-09-27T05:27:46;1.63;;;1.20;;
72797;SDS011;61084;55.816;37.036;2022-09-27T05:30:12;6.10;;;1.20;;
72797;SDS011;61084;55.816;37.036;2022-09-27T05:32:52;1.48;;;0.98;;
72797;SDS011;61084;55.816;37.036;2022-09-27T05:35:27;3.78;;;0.98;;
72797;SDS011;61084;55.816;37.036;2022-09-27T05:37:58;7.32;;;1.00;;
72797;SDS011;61084;55.816;37.036;2022-09-27T05:40:28;4.85;;;0.98;;
72797;SDS011;61084;55.816;37.036;2022-09-27T05:42:54;2.17;;;1.10;;
72797;SDS011;61084;55.816;37.036;2022-09-27T05:45:22;5.53;;;1.20;;
72797;SDS011;61084;55.816;37.036;2022-09-27T05:47:58;2.10;;;0.80;;
72797;SDS011;61084;55.816;37.036;2022-09-27T05:50:25;1.75;;;1.10;;
72797;SDS011;61084;55.816;37.036;2022-09-27T05:52:52;5.70;;;1.60;;
72797;SDS011;61084;55.816;37.036;2022-09-27T05:55:19;2.45;;;1.40;;
72797;SDS011;61084;55.816;37.036;2022-09-27T06:00:32;3.75;;;1.15;;
72797;SDS011;61084;55.816;37.036;2022-09-27T06:03:04;3.78;;;1.20;;
72797;SDS011;61084;55.816;37.036;2022-09-27T06:05:50;2.33;;;1.30;;
72797;SDS011;61084;55.816;37.036;2022-09-27T06:08:17;5.03;;;1.45;;
72797;SDS011;61084;55.816;37.036;2022-09-27T06:10:47;3.40;;;1.20;;
72797;SDS011;61084;55.816;37.036;2022-09-27T06:13:14;8.70;;;1.33;;
72797;SDS011;61084;55.816;37.036;2022-09-27T06:15:42;3.15;;;1.60;;
72797;SDS011;61084;55.816;37.036;2022-09-27T06:18:12;6.70;;;1.63;;
72797;SDS011;61084;55.816;37.036;2022-09-27T06:20:43;4.65;;;1.70;;
72797;SDS011;61084;55.816;37.036;2022-09-27T06:23:20;3.38;;;1.80;;
72797;SDS011;61084;55.816;37.036;2022-09-27T06:25:49;3.72;;;1.85;;
72797;SDS011;61084;55.816;37.036;2022-09-27T06:28:41;5.00;;;1.55;;
72797;SDS011;61084;55.816;37.036;2022-09-27T06:31:07;2.00;;;1.38;;
72797;SDS011;61084;55.816;37.036;2022-09-27T06:33:39;3.33;;;2.10;;
72797;SDS011;61084;55.816;37.036;2022-09-27T06:36:06;3.92;;;2.00;;
72797;SDS011;61084;55.816;37.036;2022-09-27T06:38:34;6.93;;;2.50;;
72797;SDS011;61084;55.816;37.036;2022-09-27T06:41:35;4.25;;;2.25;;
72797;SDS011;61084;55.816;37.036;2022-09-27T06:44:30;8.23;;;2.90;;
72797;SDS011;61084;55.816;37.036;2022-09-27T06:47:35;4.90;;;2.88;;
72797;SDS011;61084;55.816;37.036;2022-09-27T06:50:22;20.08;;;3.00;;
72797;SDS011;61084;55.816;37.036;2022-09-27T06:52:48;7.22;;;3.55;;
72797;SDS011;61084;55.816;37.036;2022-09-27T06:55:15;9.20;;;3.72;;
72797;SDS011;61084;55.816;37.036;2022-09-27T06:57:41;4.43;;;2.85;;
72797;SDS011;61084;55.816;37.036;2022-09-27T07:00:26;4.72;;;3.05;;
72797;SDS011;61084;55.816;37.036;2022-09-27T07:03:21;9.27;;;3.38;;
72797;SDS011;61084;55.816;37.036;2022-09-27T07:06:01;11.30;;;3.40;;
72797;SDS011;61084;55.816;37.036;2022-09-27T07:08:40;6.93;;;3.60;;
72797;SDS011;61084;55.816;37.036;2022-09-27T07:11:07;13.70;;;5.20;;
72797;SDS011;61084;55.816;37.036;2022-09-27T07:13:33;20.85;;;6.88;;
72797;SDS011;61084;55.816;37.036;2022-09-27T07:16:01;18.42;;;7.43;;
72797;SDS011;61084;55.816;37.036;2022-09-27T07:18:28;17.52;;;6.88;;
72797;SDS011;61084;55.816;37.036;2022-09-27T07:20:54;18.60;;;6.68;;
72797;SDS011;61084;55.816;37.036;2022-09-27T07:23:20;15.52;;;6.85;;
72797;SDS011;61084;55.816;37.036;2022-09-27T07:25:46;13.15;;;6.75;;
72797;SDS011;61084;55.816;37.036;2022-09-27T07:28:16;13.73;;;7.90;;
72797;SDS011;61084;55.816;37.036;2022-09-27T07:30:43;15.02;;;7.70;;
72797;SDS011;61084;55.816;37.036;2022-09-27T07:33:10;15.13;;;7.13;;
72797;SDS011;61084;55.816;37.036;2022-09-27T07:35:40;20.33;;;7.28;;
72797;SDS011;61084;55.816;37.036;2022-09-27T07:38:08;11.98;;;7.20;;
72797;SDS011;61084;55.816;37.036;2022-09-27T07:40:37;14.30;;;7.90;;
72797;SDS011;61084;55.816;37.036;2022-09-27T07:43:04;17.58;;;8.73;;
72797;SDS011;61084;55.816;37.036;2022-09-27T07:45:30;15.85;;;8.48;;
72797;SDS011;61084;55.816;37.036;2022-09-27T07:48:20;16.08;;;8.20;;
72797;SDS011;61084;55.816;37.036;2022-09-27T07:51:00;16.13;;;7.85;;
72797;SDS011;61084;55.816;37.036;2022-09-27T07:53:54;14.27;;;7.75;;
72797;SDS011;61084;55.816;37.036;2022-09-27T07:56:44;16.77;;;8.25;;
72797;SDS011;61084;55.816;37.036;2022-09-27T07:59:11;11.88;;;7.30;;
72797;SDS011;61084;55.816;37.036;2022-09-27T08:01:38;12.43;;;8.13;;
72797;SDS011;61084;55.816;37.036;2022-09-27T08:04:04;13.75;;;7.20;;
72797;SDS011;61084;55.816;37.036;2022-09-27T08:06:30;10.77;;;7.72;;
72797;SDS011;61084;55.816;37.036;2022-09-27T08:08:57;11.88;;;7.05;;
72797;SDS011;61084;55.816;37.036;2022-09-27T08:11:25;11.68;;;7.18;;
72797;SDS011;61084;55.816;37.036;2022-09-27T08:13:52;15.93;;;8.57;;
72797;SDS011;61084;55.816;37.036;2022-09-27T08:16:22;11.27;;;7.03;;
72797;SDS011;61084;55.816;37.036;2022-09-27T08:19:14;11.30;;;6.70;;
72797;SDS011;61084;55.816;37.036;2022-09-27T08:21:44;13.07;;;8.68;;
72797;SDS011;61084;55.816;37.036;2022-09-27T08:24:14;11.90;;;7.78;;
72797;SDS011;61084;55.816;37.036;2022-09-27T08:27:06;9.65;;;7.03;;
72797;SDS011;61084;55.816;37.036;2022-09-27T08:30:00;12.55;;;7.75;;
72797;SDS011;61084;55.816;37.036;2022-09-27T08:32:29;14.38;;;7.40;;
72797;SDS011;61084;55.816;37.036;2022-09-27T08:34:55;11.80;;;7.15;;
72797;SDS011;61084;55.816;37.036;2022-09-27T08:37:22;9.70;;;6.38;;
72797;SDS011;61084;55.816;37.036;2022-09-27T08:39:48;10.20;;;5.68;;
72797;SDS011;61084;55.816;37.036;2022-09-27T08:45:00;9.65;;;6.28;;
72797;SDS011;61084;55.816;37.036;2022-09-27T08:47:41;13.73;;;7.30;;
72797;SDS011;61084;55.816;37.036;2022-09-27T08:50:17;11.68;;;6.72;;
72797;SDS011;61084;55.816;37.036;2022-09-27T08:52:59;12.00;;;7.28;;
72797;SDS011;61084;55.816;37.036;2022-09-27T08:58:33;11.05;;;6.40;;
72797;SDS011;61084;55.816;37.036;2022-09-27T09:01:09;12.60;;;7.05;;
72797;SDS011;61084;55.816;37.036;2022-09-27T09:03:49;13.90;;;7.43;;
72797;SDS011;61084;55.816;37.036;2022-09-27T09:06:23;14.82;;;7.50;;
72797;SDS011;61084;55.816;37.036;2022-09-27T09:26:04;13.05;;;8.95;;
72797;SDS011;61084;55.816;37.036;2022-09-27T09:34:22;11.15;;;7.65;;
72797;SDS011;61084;55.816;37.036;2022-09-27T09:37:02;10.57;;;8.30;;
72797;SDS011;61084;55.816;37.036;2022-09-27T09:39:44;13.90;;;7.82;;
72797;SDS011;61084;55.816;37.036;2022-09-27T09:42:14;14.88;;;7.82;;
72797;SDS011;61084;55.816;37.036;2022-09-27T09:45:01;17.00;;;8.73;;
72797;SDS011;61084;55.816;37.036;2022-09-27T09:52:48;15.75;;;9.27;;
72797;SDS011;61084;55.816;37.036;2022-09-27T09:55:23;17.00;;;9.65;;
72797;SDS011;61084;55.816;37.036;2022-09-27T09:58:18;12.93;;;8.35;;
72797;SDS011;61084;55.816;37.036;2022-09-27T10:00:54;13.80;;;9.30;;
72797;SDS011;61084;55.816;37.036;2022-09-27T10:03:25;19.13;;;9.25;;
72797;SDS011;61084;55.816;37.036;2022-09-27T10:05:52;15.27;;;10.13;;
72797;SDS011;61084;55.816;37.036;2022-09-27T10:08:19;14.23;;;9.55;;
72797;SDS011;61084;55.816;37.036;2022-09-27T10:10:54;14.93;;;10.45;;
72797;SDS011;61084;55.816;37.036;2022-09-27T10:13:33;18.70;;;11.80;;
72797;SDS011;61084;55.816;37.036;2022-09-27T10:16:07;24.13;;;13.70;;
72797;SDS011;61084;55.816;37.036;2022-09-27T10:18:38;20.63;;;13.55;;
72797;SDS011;61084;55.816;37.036;2022-09-27T10:21:11;20.88;;;12.48;;
72797;SDS011;61084;55.816;37.036;2022-09-27T10:27:08;18.83;;;12.70;;
72797;SDS011;61084;55.816;37.036;2022-09-27T10:29:38;20.77;;;12.15;;
72797;SDS011;61084;55.816;37.036;2022-09-27T10:32:53;19.45;;;11.93;;
72797;SDS011;61084;55.816;37.036;2022-09-27T10:35:35;20.52;;;13.82;;
72797;SDS011;61084;55.816;37.036;2022-09-27T10:38:26;18.83;;;13.98;;
72797;SDS011;61084;55.816;37.036;2022-09-27T10:41:22;20.80;;;12.93;;
72797;SDS011;61084;55.816;37.036;2022-09-27T10:43:53;10.60;;;7.95;;
72797;SDS011;61084;55.816;37.036;2022-09-27T10:49:40;7.28;;;5.70;;
72797;SDS011;61084;55.816;37.036;2022-09-27T10:52:32;9.13;;;6.13;;
72797;SDS011;61084;55.816;37.036;2022-09-27T10:55:05;11.48;;;9.40;;
72797;SDS011;61084;55.816;37.036;2022-09-27T10:57:47;15.43;;;10.95;;
72797;SDS011;61084;55.816;37.036;2022-09-27T11:03:13;16.60;;;12.10;;
72797;SDS011;61084;55.816;37.036;2022-09-27T11:05:41;17.05;;;10.73;;
72797;SDS011;61084;55.816;37.036;2022-09-27T11:11:01;17.45;;;12.63;;
72797;SDS011;61084;55.816;37.036;2022-09-27T11:13:34;17.05;;;10.48;;
72797;SDS011;61084;55.816;37.036;2022-09-27T11:19:02;14.48;;;9.68;;
72797;SDS011;61084;55.816;37.036;2022-09-27T11:44:38;12.20;;;7.05;;
72797;SDS011;61084;55.816;37.036;2022-09-27T11:50:19;15.30;;;7.45;;
72797;SDS011;61084;55.816;37.036;2022-09-27T11:53:03;12.70;;;7.07;;
72797;SDS011;61084;55.816;37.036;2022-09-27T12:09:24;9.70;;;5.78;;
72797;SDS011;61084;55.816;37.036;2022-09-27T12:11:59;10.52;;;5.15;;
72797;SDS011;61084;55.816;37.036;2022-09-27T12:17:20;9.63;;;5.18;;
72797;SDS011;61084;55.816;37.036;2022-09-27T12:19:52;11.55;;;5.60;;
72797;SDS011;61084;55.816;37.036;2022-09-27T12:22:46;9.27;;;5.00;;
72797;SDS011;61084;55.816;37.036;2022-09-27T12:25:47;7.43;;;4.93;;
72797;SDS011;61084;55.816;37.036;2022-09-27T12:34:03;8.13;;;4.47;;
72797;SDS011;61084;55.816;37.036;2022-09-27T12:36:40;5.80;;;3.90;;
72797;SDS011;61084;55.816;37.036;2022-09-27T12:44:58;14.57;;;3.83;;
72797;SDS011;61084;55.816;37.036;2022-09-27T12:50:38;9.30;;;4.32;;
72797;SDS011;61084;55.816;37.036;2022-09-27T12:53:22;15.82;;;7.25;;
72797;SDS011;61084;55.816;37.036;2022-09-27T13:12:26;4.82;;;2.70;;
72797;SDS011;61084;55.816;37.036;2022-09-27T13:15:02;4.90;;;2.63;;
72797;SDS011;61084;55.816;37.036;2022-09-27T13:19:59;3.90;;;2.67;;
72797;SDS011;61084;55.816;37.036;2022-09-27T13:23:03;4.68;;;2.50;;
72797;SDS011;61084;55.816;37.036;2022-09-27T13:25:57;7.00;;;2.85;;
72797;SDS011;61084;55.816;37.036;2022-09-27T13:28:33;3.97;;;2.40;;
72797;SDS011;61084;55.816;37.036;2022-09-27T13:34:57;7.93;;;3.15;;
72797;SDS011;61084;55.816;37.036;2022-09-27T13:40:21;4.93;;;2.88;;
72797;SDS011;61084;55.816;37.036;2022-09-27T13:48:25;3.50;;;2.15;;
72797;SDS011;61084;55.816;37.036;2022-09-27T13:50:57;3.15;;;1.85;;
72797;SDS011;61084;55.816;37.036;2022-09-27T13:53:41;4.40;;;1.92;;
72797;SDS011;61084;55.816;37.036;2022-09-27T13:59:54;5.63;;;2.30;;
72797;SDS011;61084;55.816;37.036;2022-09-27T14:02:33;5.00;;;2.80;;
72797;SDS011;61084;55.816;37.036;2022-09-27T14:05:05;4.93;;;2.92;;
72797;SDS011;61084;55.816;37.036;2022-09-27T14:07:40;4.13;;;2.50;;
72797;SDS011;61084;55.816;37.036;2022-09-27T14:10:11;7.72;;;2.53;;
72797;SDS011;61084;55.816;37.036;2022-09-27T14:12:42;4.10;;;2.30;;
72797;SDS011;61084;55.816;37.036;2022-09-27T14:15:22;3.72;;;2.28;;
72797;SDS011;61084;55.816;37.036;2022-09-27T14:17:51;6.22;;;2.53;;
72797;SDS011;61084;55.816;37.036;2022-09-27T14:23:00;6.05;;;2.35;;
72797;SDS011;61084;55.816;37.036;2022-09-27T14:25:37;8.55;;;2.53;;
72797;SDS011;61084;55.816;37.036;2022-09-27T14:28:17;5.35;;;2.60;;
72797;SDS011;61084;55.816;37.036;2022-09-27T14:31:17;6.35;;;2.15;;
72797;SDS011;61084;55.816;37.036;2022-09-27T14:34:14;4.15;;;1.90;;
72797;SDS011;61084;55.816;37.036;2022-09-27T14:36:45;6.30;;;1.77;;
72797;SDS011;61084;55.816;37.036;2022-09-27T14:39:51;4.47;;;2.13;;
72797;SDS011;61084;55.816;37.036;2022-09-27T14:42:29;2.97;;;2.10;;
72797;SDS011;61084;55.816;37.036;2022-09-27T14:45:14;3.20;;;1.45;;
72797;SDS011;61084;55.816;37.036;2022-09-27T14:47:45;5.63;;;1.90;;
72797;SDS011;61084;55.816;37.036;2022-09-27T14:50:17;4.32;;;1.70;;
72797;SDS011;61084;55.816;37.036;2022-09-27T14:52:49;3.13;;;1.67;;
72797;SDS011;61084;55.816;37.036;2022-09-27T14:55:20;2.40;;;1.45;;
72797;SDS011;61084;55.816;37.036;2022-09-27T14:57:49;3.70;;;1.95;;
72797;SDS011;61084;55.816;37.036;2022-09-27T15:00:21;4.05;;;1.60;;
72797;SDS011;61084;55.816;37.036;2022-09-27T15:03:00;5.68;;;2.10;;
72797;SDS011;61084;55.816;37.036;2022-09-27T15:05:29;4.05;;;1.67;;
72797;SDS011;61084;55.816;37.036;2022-09-27T15:07:58;2.63;;;1.70;;
72797;SDS011;61084;55.816;37.036;2022-09-27T15:10:27;4.53;;;2.08;;
72797;SDS011;61084;55.816;37.036;2022-09-27T15:12:55;2.85;;;1.75;;
72797;SDS011;61084;55.816;37.036;2022-09-27T15:15:27;4.68;;;2.05;;
72797;SDS011;61084;55.816;37.036;2022-09-27T15:17:56;8.07;;;1.98;;
72797;SDS011;61084;55.816;37.036;2022-09-27T15:22:49;4.90;;;2.10;;
72797;SDS011;61084;55.816;37.036;2022-09-27T15:25:18;3.45;;;1.52;;
72797;SDS011;61084;55.816;37.036;2022-09-27T15:28:22;9.40;;;2.13;;
72797;SDS011;61084;55.816;37.036;2022-09-27T15:30:52;7.57;;;2.60;;
72797;SDS011;61084;55.816;37.036;2022-09-27T15:33:24;5.07;;;1.98;;
72797;SDS011;61084;55.816;37.036;2022-09-27T15:35:53;5.78;;;1.75;;
72797;SDS011;61084;55.816;37.036;2022-09-27T15:38:33;7.32;;;2.17;;
72797;SDS011;61084;55.816;37.036;2022-09-27T15:43:36;3.88;;;1.80;;
72797;SDS011;61084;55.816;37.036;2022-09-27T15:48:40;3.03;;;1.90;;
72797;SDS011;61084;55.816;37.036;2022-09-27T15:51:36;4.50;;;1.77;;
72797;SDS011;61084;55.816;37.036;2022-09-27T15:54:04;5.10;;;2.20;;
72797;SDS011;61084;55.816;37.036;2022-09-27T15:56:30;3.38;;;1.73;;
72797;SDS011;61084;55.816;37.036;2022-09-27T15:58:56;4.40;;;2.38;;
72797;SDS011;61084;55.816;37.036;2022-09-27T16:01:22;5.60;;;1.85;;
72797;SDS011;61084;55.816;37.036;2022-09-27T16:03:48;7.53;;;2.30;;
72797;SDS011;61084;55.816;37.036;2022-09-27T16:06:14;6.03;;;2.40;;
72797;SDS011;61084;55.816;37.036;2022-09-27T16:08:40;5.18;;;2.80;;
72797;SDS011;61084;55.816;37.036;2022-09-27T16:11:08;4.60;;;2.20;;
72797;SDS011;61084;55.816;37.036;2022-09-27T16:13:38;4.82;;;2.50;;
72797;SDS011;61084;55.816;37.036;2022-09-27T16:16:04;5.85;;;2.03;;
72797;SDS011;61084;55.816;37.036;2022-09-27T16:18:30;9.50;;;2.38;;
72797;SDS011;61084;55.816;37.036;2022-09-27T16:20:58;3.30;;;2.28;;
72797;SDS011;61084;55.816;37.036;2022-09-27T16:23:24;5.72;;;3.20;;
72797;SDS011;61084;55.816;37.036;2022-09-27T16:25:52;12.82;;;5.47;;
72797;SDS011;61084;55.816;37.036;2022-09-27T16:28:18;12.18;;;6.32;;
72797;SDS011;61084;55.816;37.036;2022-09-27T16:30:44;10.90;;;6.25;;
72797;SDS011;61084;55.816;37.036;2022-09-27T16:33:10;15.52;;;7.60;;
72797;SDS011;61084;55.816;37.036;2022-09-27T16:35:37;74.82;;;28.73;;
72797;SDS011;61084;55.816;37.036;2022-09-27T16:38:05;68.50;;;29.45;;
72797;SDS011;61084;55.816;37.036;2022-09-27T16:40:31;40.60;;;17.55;;
72797;SDS011;61084;55.816;37.036;2022-09-27T16:42:57;25.30;;;12.55;;
72797;SDS011;61084;55.816;37.036;2022-09-27T16:45:23;19.60;;;8.40;;
72797;SDS011;61084;55.816;37.036;2022-09-27T16:47:58;11.30;;;5.43;;
72797;SDS011;61084;55.816;37.036;2022-09-27T16:50:24;12.20;;;4.55;;
72797;SDS011;61084;55.816;37.036;2022-09-27T16:53:08;10.65;;;3.83;;
72797;SDS011;61084;55.816;37.036;2022-09-27T16:55:34;7.38;;;3.38;;
72797;SDS011;61084;55.816;37.036;2022-09-27T16:58:01;7.40;;;4.32;;
72797;SDS011;61084;55.816;37.036;2022-09-27T17:00:29;9.95;;;5.50;;
72797;SDS011;61084;55.816;37.036;2022-09-27T17:02:58;26.23;;;13.65;;
72797;SDS011;61084;55.816;37.036;2022-09-27T17:05:24;30.77;;;13.88;;
72797;SDS011;61084;55.816;37.036;2022-09-27T17:07:51;26.58;;;14.65;;
72797;SDS011;61084;55.816;37.036;2022-09-27T17:12:43;20.75;;;9.85;;
72797;SDS011;61084;55.816;37.036;2022-09-27T17:15:11;13.73;;;7.28;;
72797;SDS011;61084;55.816;37.036;2022-09-27T17:17:40;10.07;;;5.18;;
72797;SDS011;61084;55.816;37.036;2022-09-27T17:20:06;13.15;;;6.13;;
72797;SDS011;61084;55.816;37.036;2022-09-27T17:22:32;14.27;;;6.75;;
72797;SDS011;61084;55.816;37.036;2022-09-27T17:24:58;13.55;;;7.03;;
72797;SDS011;61084;55.816;37.036;2022-09-27T17:27:25;27.05;;;10.52;;
72797;SDS011;61084;55.816;37.036;2022-09-27T17:29:53;40.67;;;13.02;;
72797;SDS011;61084;55.816;37.036;2022-09-27T17:32:19;58.58;;;18.85;;
72797;SDS011;61084;55.816;37.036;2022-09-27T17:34:51;75.85;;;21.92;;
72797;SDS011;61084;55.816;37.036;2022-09-27T17:37:17;90.43;;;24.90;;
72797;SDS011;61084;55.816;37.036;2022-09-27T17:39:43;83.82;;;23.65;;
72797;SDS011;61084;55.816;37.036;2022-09-27T17:42:09;77.03;;;22.02;;
72797;SDS011;61084;55.816;37.036;2022-09-27T17:44:35;73.82;;;20.60;;
72797;SDS011;61084;55.816;37.036;2022-09-27T17:47:02;62.83;;;18.33;;
72797;SDS011;61084;55.816;37.036;2022-09-27T17:49:46;43.95;;;13.10;;
72797;SDS011;61084;55.816;37.036;2022-09-27T17:52:31;31.08;;;10.05;;
72797;SDS011;61084;55.816;37.036;2022-09-27T17:54:59;26.13;;;9.65;;
72797;SDS011;61084;55.816;37.036;2022-09-27T17:57:25;29.63;;;9.48;;
72797;SDS011;61084;55.816;37.036;2022-09-27T17:59:50;27.90;;;9.18;;
72797;SDS011;61084;55.816;37.036;2022-09-27T18:04:44;30.60;;;11.95;;
72797;SDS011;61084;55.816;37.036;2022-09-27T18:07:10;31.45;;;11.27;;
72797;SDS011;61084;55.816;37.036;2022-09-27T18:09:37;24.35;;;10.48;;
72797;SDS011;61084;55.816;37.036;2022-09-27T18:12:03;28.27;;;10.70;;
72797;SDS011;61084;55.816;37.036;2022-09-27T18:14:29;22.67;;;8.05;;
72797;SDS011;61084;55.816;37.036;2022-09-27T18:16:56;6.72;;;3.90;;
72797;SDS011;61084;55.816;37.036;2022-09-27T18:19:22;13.68;;;4.13;;
72797;SDS011;61084;55.816;37.036;2022-09-27T18:21:49;11.75;;;4.07;;
72797;SDS011;61084;55.816;37.036;2022-09-27T18:24:15;6.95;;;3.20;;
72797;SDS011;61084;55.816;37.036;2022-09-27T18:26:41;8.52;;;5.47;;